Time;durP1;ratioP1;P1;durP2;ratioP2;P2;SDS_P1;SDS_P2;PMS_P1;PMS_P2;Temp;Humidity;BMP_temperature;BMP_pressure;BME280_temperature;BME280_humidity;BME280_pressure;Samples;Min_cycle;Max_cycle;Signal;HPM_P1;HPM_P2
2022/01/31 00:00:21;;;;;;;30.50;5.17;;;4.20;99.90;;;;;;4994471;28;20079;-77
2022/01/31 00:02:48;;;;;;;29.33;5.30;;;4.20;99.90;;;;;;5013891;28;20119;-79
2022/01/31 00:05:14;;;;;;;28.93;4.97;;;4.20;99.90;;;;;;4994125;28;20050;-75
2022/01/31 00:07:40;;;;;;;30.57;5.07;;;4.20;99.90;;;;;;4996859;28;20422;-76
2022/01/31 00:10:09;;;;;;;28.47;4.80;;;4.20;99.90;;;;;;5012506;28;20048;-79
2022/01/31 00:12:47;;;;;;;31.17;5.70;;;4.20;99.90;;;;;;4995585;28;20045;-77
2022/01/31 00:15:13;;;;;;;29.13;5.20;;;4.20;99.90;;;;;;5013263;28;20068;-77
2022/01/31 00:17:39;;;;;;;21.40;5.23;;;4.20;99.90;;;;;;4976045;28;20041;-79
2022/01/31 00:20:07;;;;;;;29.30;6.00;;;4.20;99.90;;;;;;5009932;28;20041;-78
2022/01/31 00:22:33;;;;;;;32.27;5.70;;;4.20;99.90;;;;;;4993611;28;20038;-77
2022/01/31 00:24:58;;;;;;;29.33;6.33;;;4.20;99.90;;;;;;4995600;28;20124;-76
2022/01/31 00:27:24;;;;;;;24.70;5.97;;;4.20;99.90;;;;;;4995796;28;20046;-77
2022/01/31 00:29:50;;;;;;;29.83;6.27;;;4.20;99.90;;;;;;5013206;28;20108;-76
2022/01/31 00:32:16;;;;;;;23.33;6.90;;;4.20;99.90;;;;;;4989965;28;20049;-77
2022/01/31 00:34:42;;;;;;;33.10;5.87;;;4.20;99.90;;;;;;5008980;28;20041;-78
2022/01/31 00:37:09;;;;;;;36.97;7.40;;;4.20;99.90;;;;;;5011431;28;20033;-77
2022/01/31 00:39:36;;;;;;;24.77;6.10;;;4.10;99.90;;;;;;4980624;28;20136;-78
2022/01/31 00:42:04;;;;;;;29.50;6.53;;;4.10;99.90;;;;;;4996086;28;20037;-77
2022/01/31 00:44:41;;;;;;;25.73;6.57;;;4.10;99.90;;;;;;4996396;28;20042;-79
2022/01/31 00:47:18;;;;;;;28.87;6.07;;;4.20;99.90;;;;;;5011913;28;20049;-75
2022/01/31 00:49:50;;;;;;;26.83;6.33;;;4.20;99.90;;;;;;5027672;28;20045;-76
2022/01/31 00:52:18;;;;;;;29.77;7.37;;;4.20;99.90;;;;;;4995453;28;20041;-75
2022/01/31 00:54:44;;;;;;;28.87;7.00;;;4.20;99.90;;;;;;5012862;28;20046;-77
2022/01/31 00:57:10;;;;;;;28.43;7.50;;;4.20;99.90;;;;;;5012081;28;20048;-77
2022/01/31 00:59:35;;;;;;;29.93;7.03;;;4.20;99.90;;;;;;5012657;28;20057;-78
2022/01/31 01:02:01;;;;;;;32.57;7.07;;;4.20;99.90;;;;;;4996094;28;20095;-76
2022/01/31 01:04:27;;;;;;;27.87;6.20;;;4.20;99.90;;;;;;4996015;28;20049;-78
2022/01/31 01:06:53;;;;;;;21.73;7.10;;;4.20;99.90;;;;;;5011148;28;21015;-76
2022/01/31 01:09:20;;;;;;;28.80;7.10;;;4.20;99.90;;;;;;5009321;28;20046;-77
2022/01/31 01:11:45;;;;;;;28.57;7.27;;;4.20;99.90;;;;;;4992265;28;20043;-78
2022/01/31 01:14:12;;;;;;;29.67;7.27;;;4.20;99.90;;;;;;4994140;28;20473;-78
2022/01/31 01:16:38;;;;;;;28.70;7.23;;;4.20;99.90;;;;;;5011885;28;20080;-78
2022/01/31 01:19:04;;;;;;;28.10;7.00;;;4.30;99.90;;;;;;4990259;28;20056;-76
2022/01/31 01:21:30;;;;;;;27.50;8.13;;;4.20;99.90;;;;;;4996678;28;20406;-79
2022/01/31 01:23:55;;;;;;;28.17;8.23;;;4.20;99.90;;;;;;4998637;28;20049;-79
2022/01/31 01:26:23;;;;;;;24.60;8.60;;;4.20;99.90;;;;;;4999099;28;20136;-78
2022/01/31 01:28:51;;;;;;;31.33;8.57;;;4.20;99.90;;;;;;4999275;28;20049;-79
2022/01/31 01:31:17;;;;;;;32.40;8.83;;;4.20;99.90;;;;;;5016528;28;20041;-78
2022/01/31 01:33:43;;;;;;;35.10;9.57;;;4.20;99.90;;;;;;4998989;28;20064;-77
2022/01/31 01:36:09;;;;;;;28.07;9.03;;;4.20;99.90;;;;;;4984828;28;20049;-79
2022/01/31 01:38:36;;;;;;;28.23;9.13;;;4.10;99.90;;;;;;5031541;28;20045;-78
2022/01/31 01:41:02;;;;;;;30.80;10.97;;;4.10;99.90;;;;;;4998027;28;20041;-77
2022/01/31 01:43:30;;;;;;;31.87;9.67;;;4.10;99.90;;;;;;4997441;28;20077;-78
2022/01/31 01:45:57;;;;;;;34.17;10.47;;;4.00;99.90;;;;;;5014778;28;20092;-77
2022/01/31 01:48:27;;;;;;;38.83;11.63;;;4.00;99.90;;;;;;4999601;28;20051;-78
2022/01/31 01:50:55;;;;;;;30.87;11.80;;;4.00;99.90;;;;;;4984758;28;20041;-78
2022/01/31 01:53:22;;;;;;;37.47;13.33;;;4.00;99.90;;;;;;4986696;28;20041;-79
2022/01/31 01:55:51;;;;;;;30.03;11.40;;;3.90;99.90;;;;;;4996854;28;20041;-78
2022/01/31 01:58:17;;;;;;;34.90;13.30;;;3.90;99.90;;;;;;4998628;28;20427;-78
2022/01/31 02:00:53;;;;;;;32.20;14.13;;;3.90;99.90;;;;;;5015873;28;20068;-77
2022/01/31 02:03:37;;;;;;;27.23;12.20;;;3.90;99.90;;;;;;5015730;28;20045;-76
2022/01/31 02:06:04;;;;;;;30.07;13.80;;;3.80;99.90;;;;;;5016066;28;20422;-79
2022/01/31 02:08:39;;;;;;;27.43;13.03;;;3.70;99.90;;;;;;4998890;28;20038;-78
2022/01/31 02:11:05;;;;;;;25.50;12.60;;;3.70;99.90;;;;;;5000164;28;20140;-79
2022/01/31 02:13:39;;;;;;;28.70;14.57;;;3.60;99.90;;;;;;4998581;28;20037;-78
2022/01/31 02:16:10;;;;;;;37.03;14.63;;;3.60;99.90;;;;;;5011926;28;20120;-78
2022/01/31 02:18:50;;;;;;;27.43;14.07;;;3.60;99.90;;;;;;4997684;28;20049;-77
2022/01/31 02:21:35;;;;;;;28.43;15.20;;;3.50;99.90;;;;;;5005941;28;20068;-77
2022/01/31 02:24:21;;;;;;;32.47;15.40;;;3.50;99.90;;;;;;5013139;28;20068;-78
2022/01/31 02:27:03;;;;;;;28.60;15.03;;;3.50;99.90;;;;;;5011874;28;20045;-79
2022/01/31 02:29:31;;;;;;;32.20;15.60;;;3.50;99.90;;;;;;4985217;28;20044;-77
2022/01/31 02:31:56;;;;;;;33.70;15.80;;;3.50;99.90;;;;;;5014123;28;20053;-77
2022/01/31 02:34:22;;;;;;;33.53;15.93;;;3.50;99.90;;;;;;5012923;28;20045;-77
2022/01/31 02:36:49;;;;;;;30.20;15.77;;;3.50;99.90;;;;;;4986171;28;20045;-80
2022/01/31 02:39:15;;;;;;;34.80;17.43;;;3.50;99.90;;;;;;5015140;28;20496;-77
2022/01/31 02:41:42;;;;;;;31.70;15.63;;;3.50;99.90;;;;;;4982735;28;20095;-79
2022/01/31 02:44:14;;;;;;;29.93;16.20;;;3.60;99.90;;;;;;4984260;28;20555;-78
2022/01/31 02:46:50;;;;;;;35.07;17.03;;;3.60;99.90;;;;;;4998713;28;20124;-78
2022/01/31 02:49:19;;;;;;;28.13;15.27;;;3.60;99.90;;;;;;5011721;28;20132;-79
2022/01/31 02:51:49;;;;;;;23.07;13.13;;;3.60;99.90;;;;;;5000979;28;20080;-77
2022/01/31 02:54:16;;;;;;;20.73;12.40;;;3.60;99.90;;;;;;4998481;28;20041;-80
2022/01/31 02:56:42;;;;;;;25.90;13.70;;;3.60;99.90;;;;;;4982889;28;20049;-77
2022/01/31 02:59:08;;;;;;;16.87;9.20;;;3.60;99.90;;;;;;4983186;28;20037;-80
2022/01/31 03:01:35;;;;;;;19.60;10.97;;;3.60;99.90;;;;;;4998586;28;20491;-80
2022/01/31 03:04:03;;;;;;;17.70;10.23;;;3.60;99.90;;;;;;5004306;28;20037;-78
2022/01/31 03:09:10;;;;;;;18.00;9.93;;;3.60;99.90;;;;;;5050799;28;20056;-77
2022/01/31 03:11:40;;;;;;;15.93;9.30;;;3.60;99.90;;;;;;5015857;28;20124;-78
2022/01/31 03:14:09;;;;;;;22.53;9.10;;;3.60;99.90;;;;;;5019578;28;20568;-77
2022/01/31 03:16:40;;;;;;;17.53;9.43;;;3.60;99.90;;;;;;5017544;28;20040;-77
2022/01/31 03:19:06;;;;;;;14.03;9.33;;;3.60;99.90;;;;;;5018667;28;20477;-77
2022/01/31 03:21:32;;;;;;;21.57;9.90;;;3.60;99.90;;;;;;4995782;28;20490;-78
2022/01/31 03:23:58;;;;;;;21.17;10.23;;;3.60;99.90;;;;;;5016818;28;20102;-78
2022/01/31 03:26:24;;;;;;;13.30;10.03;;;3.60;99.90;;;;;;5000610;28;20100;-77
2022/01/31 03:28:53;;;;;;;18.07;11.67;;;3.70;99.90;;;;;;5001042;28;20090;-78
2022/01/31 03:31:19;;;;;;;18.90;11.47;;;3.70;99.90;;;;;;5036030;28;20542;-78
2022/01/31 03:33:47;;;;;;;18.27;11.33;;;3.70;99.90;;;;;;5017193;28;20453;-78
2022/01/31 03:36:13;;;;;;;18.10;12.30;;;3.80;99.90;;;;;;5017447;28;20041;-77
2022/01/31 03:38:41;;;;;;;22.33;11.90;;;3.90;99.90;;;;;;5018994;28;20044;-79
2022/01/31 03:41:07;;;;;;;22.80;12.13;;;3.90;99.90;;;;;;5000417;28;20052;-78
2022/01/31 03:43:33;;;;;;;21.90;10.67;;;4.00;99.90;;;;;;5016763;28;20060;-78
2022/01/31 03:46:00;;;;;;;24.23;11.27;;;4.10;99.90;;;;;;5017617;28;20120;-77
2022/01/31 03:48:28;;;;;;;28.27;10.80;;;4.20;99.90;;;;;;5017467;28;20061;-77
2022/01/31 03:50:57;;;;;;;24.63;9.60;;;4.30;99.90;;;;;;5002723;28;20044;-77
2022/01/31 03:53:23;;;;;;;29.73;10.47;;;4.40;99.90;;;;;;5017827;28;20049;-78
2022/01/31 03:55:49;;;;;;;27.57;9.83;;;4.50;99.90;;;;;;5000989;28;20060;-77
2022/01/31 03:58:15;;;;;;;32.00;11.93;;;4.60;99.90;;;;;;5012199;28;20037;-78
2022/01/31 04:00:51;;;;;;;28.13;10.00;;;4.70;99.90;;;;;;5018830;28;20413;-77
2022/01/31 04:03:18;;;;;;;26.57;9.23;;;4.80;99.90;;;;;;5017095;28;20044;-77
2022/01/31 04:05:44;;;;;;;21.43;7.97;;;4.80;99.90;;;;;;5033151;28;20059;-78
2022/01/31 07:12:39;;;;;;;13.00;1.60;;;4.70;99.90;;;;;;5121684;27;20403;-76
2022/01/31 07:15:07;;;;;;;14.23;2.00;;;5.30;99.90;;;;;;5082356;28;20402;-75
2022/01/31 07:17:35;;;;;;;11.17;2.20;;;5.30;99.90;;;;;;5105119;28;22283;-77
2022/01/31 07:20:03;;;;;;;9.50;1.40;;;5.30;99.90;;;;;;5107068;27;20071;-77
2022/01/31 07:22:34;;;;;;;13.83;1.60;;;5.30;99.90;;;;;;5103407;28;20035;-77
2022/01/31 07:25:05;;;;;;;11.20;1.37;;;5.30;99.90;;;;;;5114134;27;20035;-78
2022/01/31 07:27:31;;;;;;;8.20;1.40;;;5.30;99.90;;;;;;5072361;27;20036;-75
2022/01/31 07:29:58;;;;;;;7.53;1.23;;;5.30;99.90;;;;;;5106688;27;20031;-76
2022/01/31 07:32:24;;;;;;;10.73;1.60;;;5.30;99.90;;;;;;5092028;28;20144;-78
2022/01/31 07:34:53;;;;;;;7.03;1.30;;;5.30;99.90;;;;;;5079474;28;20065;-76
2022/01/31 07:37:19;;;;;;;9.70;1.57;;;5.30;99.90;;;;;;5086386;27;20028;-76
2022/01/31 07:39:45;;;;;;;10.03;1.60;;;5.30;99.90;;;;;;5091603;28;20209;-77
2022/01/31 07:42:11;;;;;;;13.53;1.70;;;5.30;99.90;;;;;;5078909;27;20036;-77
2022/01/31 07:44:45;;;;;;;14.57;2.33;;;5.30;99.90;;;;;;5078242;28;20515;-77
2022/01/31 07:47:12;;;;;;;17.33;2.30;;;5.30;99.90;;;;;;5108535;27;20070;-77
2022/01/31 07:49:38;;;;;;;14.30;2.13;;;5.30;99.90;;;;;;5105148;27;20081;-76
2022/01/31 07:52:05;;;;;;;17.10;1.83;;;5.30;99.90;;;;;;5112049;28;20118;-76
2022/01/31 07:54:30;;;;;;;12.70;2.00;;;5.30;99.90;;;;;;5105733;27;20522;-76
2022/01/31 07:56:57;;;;;;;14.17;2.30;;;5.30;99.90;;;;;;5088416;28;20052;-76
2022/01/31 07:59:23;;;;;;;15.10;2.20;;;5.30;99.90;;;;;;5108935;27;20039;-76
2022/01/31 08:01:49;;;;;;;11.37;1.83;;;5.30;99.90;;;;;;5100451;28;20113;-76
2022/01/31 08:04:16;;;;;;;17.47;2.47;;;5.30;99.90;;;;;;5074055;28;20199;-76
2022/01/31 08:06:42;;;;;;;18.53;2.10;;;5.30;99.90;;;;;;5107652;28;20121;-76
2022/01/31 08:09:07;;;;;;;15.10;2.00;;;5.30;99.90;;;;;;5109281;27;20082;-77
2022/01/31 08:11:35;;;;;;;13.67;2.20;;;5.30;99.90;;;;;;5084702;28;20063;-76
2022/01/31 08:14:06;;;;;;;17.50;2.00;;;5.40;99.90;;;;;;5074981;28;20043;-76
2022/01/31 08:16:32;;;;;;;15.40;2.37;;;5.40;99.90;;;;;;5077489;28;20036;-76
2022/01/31 08:18:57;;;;;;;18.90;2.60;;;5.40;99.90;;;;;;5092546;27;20062;-75
2022/01/31 08:21:25;;;;;;;17.67;2.47;;;5.40;99.90;;;;;;5092532;27;20043;-77
2022/01/31 08:23:52;;;;;;;13.60;2.33;;;5.40;99.90;;;;;;5076748;28;20496;-76
2022/01/31 08:26:19;;;;;;;17.73;2.80;;;5.50;99.90;;;;;;5084358;28;20043;-76
2022/01/31 08:31:41;;;;;;;22.47;2.90;;;5.60;99.90;;;;;;5073881;28;20517;-77
2022/01/31 08:34:22;;;;;;;16.57;2.97;;;5.60;99.90;;;;;;5059040;28;20044;-76
2022/01/31 08:36:50;;;;;;;18.23;2.47;;;5.70;99.90;;;;;;5093285;27;20048;-76
2022/01/31 08:39:18;;;;;;;20.77;2.67;;;5.80;99.90;;;;;;5080226;28;20504;-76
2022/01/31 08:41:47;;;;;;;20.80;2.83;;;5.80;99.90;;;;;;5079314;28;20044;-76
2022/01/31 08:44:15;;;;;;;18.37;2.50;;;5.80;99.90;;;;;;5074755;28;20503;-76
2022/01/31 08:46:41;;;;;;;25.90;3.13;;;5.80;99.90;;;;;;5093330;28;20067;-76
2022/01/31 08:49:07;;;;;;;22.60;2.97;;;5.90;99.90;;;;;;5092940;28;20177;-76
2022/01/31 08:51:33;;;;;;;22.90;3.00;;;5.90;99.90;;;;;;5079662;28;20044;-75
2022/01/31 08:54:00;;;;;;;17.00;2.23;;;6.00;99.90;;;;;;5098036;28;20128;-75
2022/01/31 08:56:26;;;;;;;13.40;2.53;;;6.10;99.90;;;;;;5094824;28;20035;-77
2022/01/31 08:58:52;;;;;;;12.13;2.10;;;6.10;99.90;;;;;;5061139;28;20094;-77
2022/01/31 09:01:22;;;;;;;12.60;2.03;;;6.20;99.90;;;;;;5096233;27;20039;-77
2022/01/31 09:06:22;;;;;;;10.60;2.20;;;6.30;99.90;;;;;;5096935;28;20036;-76
2022/01/31 09:08:48;;;;;;;8.07;1.80;;;6.40;99.90;;;;;;5078766;28;20127;-77
2022/01/31 09:11:15;;;;;;;14.60;2.20;;;6.50;99.90;;;;;;5097773;28;20047;-76
2022/01/31 09:13:41;;;;;;;10.53;1.47;;;6.70;99.90;;;;;;5080583;28;20521;-76
2022/01/31 09:16:07;;;;;;;13.50;1.87;;;6.70;99.90;;;;;;5090895;27;20494;-75
2022/01/31 09:18:33;;;;;;;10.00;1.70;;;6.80;99.90;;;;;;5058490;28;20082;-76
2022/01/31 09:21:00;;;;;;;14.53;2.13;;;6.90;99.90;;;;;;5093104;28;20162;-76
2022/01/31 09:23:26;;;;;;;10.60;2.07;;;7.00;99.90;;;;;;5073331;28;20063;-77
2022/01/31 09:25:52;;;;;;;11.93;1.83;;;6.90;99.90;;;;;;5093052;27;20043;-76
2022/01/31 09:28:19;;;;;;;8.93;1.90;;;7.00;99.90;;;;;;5090617;28;20055;-77
2022/01/31 09:30:46;;;;;;;9.03;1.40;;;7.10;99.90;;;;;;5078526;28;20043;-76
2022/01/31 09:33:13;;;;;;;11.30;1.57;;;7.30;99.90;;;;;;5091430;28;20048;-77
2022/01/31 09:35:39;;;;;;;15.67;2.20;;;7.40;99.90;;;;;;5058498;28;20147;-76
2022/01/31 09:38:05;;;;;;;10.60;1.60;;;7.50;99.90;;;;;;5063316;28;20067;-76
2022/01/31 09:40:31;;;;;;;13.60;1.83;;;7.50;99.90;;;;;;5076127;28;20051;-76
2022/01/31 09:43:08;;;;;;;10.07;1.30;;;7.50;99.90;;;;;;5094112;28;20054;-76
2022/01/31 09:50:57;;;;;;;12.50;1.93;;;7.60;99.90;;;;;;5097653;27;20032;-77
2022/01/31 09:53:23;;;;;;;12.10;2.30;;;7.60;99.90;;;;;;5078567;28;20043;-79
2022/01/31 09:55:49;;;;;;;11.90;2.20;;;7.90;99.90;;;;;;5078449;28;20047;-77
2022/01/31 09:58:14;;;;;;;11.80;2.03;;;7.90;99.90;;;;;;5093597;28;20048;-77
2022/01/31 10:00:41;;;;;;;11.10;1.80;;;7.90;99.90;;;;;;5073548;28;20122;-77
2022/01/31 10:03:09;;;;;;;16.70;2.17;;;8.00;99.90;;;;;;5084114;28;20048;-76
2022/01/31 10:05:35;;;;;;;10.60;1.53;;;8.80;99.90;;;;;;5075680;28;20047;-77
2022/01/31 10:08:10;;;;;;;11.67;2.10;;;9.80;99.90;;;;;;5094361;27;20134;-77
2022/01/31 10:10:40;;;;;;;11.47;1.73;;;10.10;99.90;;;;;;5092798;28;20161;-77
2022/01/31 10:16:27;;;;;;;11.90;2.20;;;10.00;99.90;;;;;;5090486;27;20051;-77
2022/01/31 10:19:05;;;;;;;11.67;1.80;;;9.80;99.90;;;;;;5090972;28;20129;-77
2022/01/31 10:21:31;;;;;;;11.63;2.60;;;10.20;99.90;;;;;;5076615;28;20051;-77
2022/01/31 10:23:57;;;;;;;11.37;1.90;;;10.40;99.90;;;;;;5087993;28;20201;-78
2022/01/31 10:26:29;;;;;;;11.43;1.43;;;10.30;99.90;;;;;;5089662;27;20499;-78
2022/01/31 10:29:08;;;;;;;13.93;1.70;;;10.00;99.90;;;;;;5072007;28;20051;-77
2022/01/31 10:31:35;;;;;;;9.60;1.77;;;10.30;99.90;;;;;;5086448;28;20502;-77
2022/01/31 10:34:18;;;;;;;8.80;1.70;;;10.50;99.90;;;;;;5090771;28;20054;-77
2022/01/31 10:36:43;;;;;;;4.33;1.30;;;11.40;99.90;;;;;;5070415;28;20050;-77
2022/01/31 10:39:15;;;;;;;11.67;2.33;;;12.30;99.90;;;;;;5088568;28;20052;-77
2022/01/31 10:45:09;;;;;;;8.90;1.98;;;12.00;99.90;;;;;;5076332;28;20058;-77
2022/01/31 10:53:05;;;;;;;10.93;2.53;;;12.00;99.90;;;;;;5092903;28;20059;-78
2022/01/31 10:55:31;;;;;;;11.13;2.20;;;11.90;99.90;;;;;;5057856;28;20101;-77
2022/01/31 10:58:05;;;;;;;10.03;1.53;;;13.00;99.90;;;;;;5093689;27;20465;-77
2022/01/31 11:00:34;;;;;;;7.10;1.48;;;14.30;99.90;;;;;;5089394;28;20134;-77
2022/01/31 11:03:25;;;;;;;7.83;1.33;;;15.30;99.90;;;;;;5089467;28;20138;-77
2022/01/31 11:05:51;;;;;;;4.23;1.17;;;16.50;99.90;;;;;;5080976;28;20043;-78
2022/01/31 11:08:17;;;;;;;8.63;1.90;;;17.20;99.90;;;;;;5059338;28;20048;-78
2022/01/31 11:10:42;;;;;;;8.03;1.73;;;17.50;99.90;;;;;;5093997;28;20043;-78
2022/01/31 11:13:09;;;;;;;8.50;1.80;;;17.90;99.90;;;;;;5095432;28;20127;-77
2022/01/31 11:15:36;;;;;;;7.30;1.80;;;18.20;99.90;;;;;;5079002;28;20379;-78
2022/01/31 11:18:06;;;;;;;8.93;1.87;;;18.60;99.90;;;;;;5091133;28;20069;-78
2022/01/31 11:20:33;;;;;;;7.77;1.77;;;18.70;99.80;;;;;;5075091;28;20032;-78
2022/01/31 11:23:01;;;;;;;8.37;2.07;;;18.50;99.00;;;;;;5091275;28;20044;-79
2022/01/31 11:25:28;;;;;;;8.33;1.83;;;18.30;98.10;;;;;;5093293;28;20040;-77
2022/01/31 11:27:58;;;;;;;8.17;2.10;;;17.60;97.40;;;;;;5097321;28;20050;-78
2022/01/31 11:30:24;;;;;;;9.20;2.00;;;17.50;99.20;;;;;;5075727;28;20181;-78
2022/01/31 11:32:50;;;;;;;11.37;1.93;;;17.60;98.10;;;;;;5076564;28;20044;-78
2022/01/31 11:35:17;;;;;;;10.20;2.37;;;17.10;97.00;;;;;;5095709;28;20657;-78
2022/01/31 11:37:43;;;;;;;9.23;1.83;;;16.30;97.40;;;;;;5068083;28;20047;-77
2022/01/31 11:40:11;;;;;;;21.20;2.97;;;15.80;98.10;;;;;;5093152;28;20044;-78
2022/01/31 11:42:41;;;;;;;15.37;2.40;;;15.30;99.10;;;;;;5059424;28;20040;-77
2022/01/31 11:45:11;;;;;;;9.73;2.10;;;15.20;99.90;;;;;;5071824;28;20452;-79
2022/01/31 11:47:38;;;;;;;9.30;1.90;;;15.00;99.90;;;;;;5061551;28;20120;-78
2022/01/31 11:50:06;;;;;;;9.07;2.10;;;14.50;99.90;;;;;;5080705;28;20415;-77
2022/01/31 11:52:42;;;;;;;13.63;2.60;;;14.00;99.90;;;;;;5080277;28;20174;-77
2022/01/31 11:55:12;;;;;;;15.47;2.57;;;13.60;99.90;;;;;;5076728;28;20117;-76
2022/01/31 11:57:39;;;;;;;12.27;2.33;;;13.10;99.90;;;;;;5094726;27;20048;-77
2022/01/31 12:00:08;;;;;;;9.80;2.13;;;13.40;99.90;;;;;;5085927;27;20044;-78
2022/01/31 12:02:43;;;;;;;11.37;2.00;;;13.60;99.90;;;;;;5085143;28;20047;-77
2022/01/31 12:05:12;;;;;;;16.33;3.10;;;13.40;99.90;;;;;;5096967;28;20377;-77
2022/01/31 12:07:41;;;;;;;19.30;2.97;;;13.10;99.90;;;;;;5095864;28;20047;-77
2022/01/31 12:10:10;;;;;;;15.83;2.83;;;12.70;99.90;;;;;;5095079;28;20048;-78
2022/01/31 12:12:50;;;;;;;13.37;2.63;;;12.80;99.90;;;;;;5092216;27;20036;-77
2022/01/31 12:23:53;;;;;;;15.80;2.30;;;13.40;99.90;;;;;;5100632;27;20077;-77
2022/01/31 12:26:33;;;;;;;15.50;3.23;;;12.90;99.90;;;;;;5093467;28;20093;-77
2022/01/31 12:29:00;;;;;;;11.77;2.27;;;12.40;99.90;;;;;;5094628;28;20412;-76
2022/01/31 12:31:35;;;;;;;13.77;2.47;;;11.80;99.90;;;;;;5097676;27;20052;-77
2022/01/31 12:34:08;;;;;;;13.60;1.97;;;11.30;99.90;;;;;;5084289;28;20422;-78
2022/01/31 12:36:50;;;;;;;12.70;2.10;;;10.80;99.90;;;;;;5099217;28;20055;-78
2022/01/31 12:39:59;;;;;;;15.20;2.47;;;10.50;99.90;;;;;;5105161;28;20040;-76
2022/01/31 12:42:48;;;;;;;14.97;2.27;;;10.20;99.90;;;;;;5105724;27;20493;-77
2022/01/31 12:45:16;;;;;;;9.93;2.00;;;10.00;99.90;;;;;;5096073;27;20043;-77
2022/01/31 12:48:12;;;;;;;15.50;2.30;;;9.90;99.90;;;;;;5084171;28;20115;-78
2022/01/31 12:50:41;;;;;;;13.20;2.20;;;9.80;99.90;;;;;;5070648;28;20832;-78
2022/01/31 12:53:47;;;;;;;15.00;1.80;;;9.70;99.90;;;;;;5061248;28;20464;-78
2022/01/31 12:56:22;;;;;;;10.40;2.33;;;9.60;99.90;;;;;;5093816;27;20055;-77
2022/01/31 12:58:49;;;;;;;16.33;2.23;;;9.60;99.90;;;;;;5102230;28;20051;-77
2022/01/31 13:01:17;;;;;;;15.00;2.63;;;9.50;99.90;;;;;;5081092;28;20050;-79
2022/01/31 13:03:45;;;;;;;11.93;2.00;;;9.40;99.90;;;;;;5076470;28;20044;-76
2022/01/31 13:06:37;;;;;;;12.23;2.13;;;9.20;99.90;;;;;;5081869;28;20465;-77
2022/01/31 13:09:10;;;;;;;16.13;2.80;;;9.20;99.90;;;;;;5098896;27;20514;-77
2022/01/31 13:11:38;;;;;;;12.33;1.90;;;9.20;99.90;;;;;;5082431;27;20440;-77
2022/01/31 13:14:13;;;;;;;20.87;2.97;;;9.10;99.90;;;;;;5063761;28;20104;-78
2022/01/31 13:16:45;;;;;;;15.50;2.50;;;9.20;99.90;;;;;;5101825;28;20051;-76
2022/01/31 13:19:13;;;;;;;14.70;2.77;;;9.10;99.90;;;;;;5104699;27;20048;-76
2022/01/31 13:21:39;;;;;;;19.70;2.80;;;9.10;99.90;;;;;;5098723;28;20052;-77
2022/01/31 13:24:05;;;;;;;12.43;2.13;;;9.10;99.90;;;;;;5101597;28;20031;-77
2022/01/31 13:26:51;;;;;;;20.33;3.40;;;9.00;99.90;;;;;;5101565;28;20116;-77
2022/01/31 13:29:39;;;;;;;21.60;2.77;;;9.00;99.90;;;;;;5071573;28;20127;-78
2022/01/31 13:32:17;;;;;;;16.57;2.47;;;8.90;99.90;;;;;;5068699;28;20036;-77
2022/01/31 13:34:45;;;;;;;18.93;3.13;;;9.00;99.90;;;;;;5091937;27;20071;-79
2022/01/31 13:37:40;;;;;;;18.27;3.27;;;9.00;99.90;;;;;;5081950;28;20040;-76
2022/01/31 13:40:10;;;;;;;20.10;2.90;;;8.90;99.90;;;;;;5032129;28;20043;-78
2022/01/31 13:42:39;;;;;;;13.70;2.13;;;8.90;99.90;;;;;;5078591;28;20047;-77
2022/01/31 13:45:17;;;;;;;17.87;2.20;;;8.90;99.90;;;;;;5078971;28;20068;-77
2022/01/31 13:48:01;;;;;;;18.07;2.80;;;9.00;99.90;;;;;;5077074;28;20036;-78
2022/01/31 13:50:32;;;;;;;12.03;2.20;;;9.00;99.90;;;;;;5068916;28;20047;-77
2022/01/31 13:53:02;;;;;;;12.70;2.13;;;9.10;99.90;;;;;;5095680;28;20054;-78
2022/01/31 13:55:29;;;;;;;21.07;4.10;;;9.10;99.90;;;;;;5079242;28;20267;-78
2022/01/31 13:57:56;;;;;;;18.77;3.13;;;9.10;99.90;;;;;;5075816;28;20064;-77
2022/01/31 14:00:23;;;;;;;15.07;2.87;;;9.10;99.90;;;;;;5094165;27;20047;-78
2022/01/31 14:03:12;;;;;;;18.47;2.50;;;9.10;99.90;;;;;;5098257;28;20043;-78
2022/01/31 14:05:46;;;;;;;16.87;2.53;;;9.00;99.90;;;;;;5059125;28;20054;-79
2022/01/31 14:08:15;;;;;;;;;;;8.90;99.90;;;;;;5087380;28;20204;-78
2022/01/31 14:10:43;;;;;;;20.47;2.53;;;8.70;99.90;;;;;;5084894;28;19915;-77
2022/01/31 14:13:13;;;;;;;16.97;2.70;;;8.50;99.90;;;;;;5098506;27;20172;-78
2022/01/31 14:15:44;;;;;;;24.67;3.00;;;8.40;99.90;;;;;;5099870;27;20048;-77
2022/01/31 14:18:12;;;;;;;24.17;3.37;;;8.30;99.90;;;;;;5078738;27;20043;-77
2022/01/31 14:20:37;;;;;;;21.90;3.53;;;8.30;99.90;;;;;;5086227;28;20515;-78
2022/01/31 14:23:04;;;;;;;26.00;3.23;;;8.30;99.90;;;;;;5080600;28;20054;-76
2022/01/31 14:25:38;;;;;;;25.00;2.90;;;8.30;99.90;;;;;;5077280;28;20036;-77
2022/01/31 14:28:05;;;;;;;14.75;2.83;;;8.30;99.90;;;;;;5094035;28;20035;-77
2022/01/31 14:30:33;;;;;;;24.60;3.87;;;8.30;99.90;;;;;;5081927;28;20043;-77
2022/01/31 14:33:01;;;;;;;21.47;2.53;;;8.20;99.90;;;;;;5080956;28;20148;-76
2022/01/31 14:35:28;;;;;;;16.60;2.83;;;8.20;99.90;;;;;;5096391;28;20437;-78
2022/01/31 14:37:57;;;;;;;18.47;2.70;;;8.20;99.90;;;;;;5082195;28;20071;-80
2022/01/31 14:47:14;;;;;;;15.73;3.33;;;8.10;99.90;;;;;;5040070;28;20068;-77
2022/01/31 14:48:44;;;;;;;16.23;2.60;;;8.10;99.90;;;;;;5095774;27;20051;-78
2022/01/31 14:51:22;;;;;;;16.30;2.83;;;8.10;99.90;;;;;;5094237;28;20043;-78
2022/01/31 14:53:53;;;;;;;18.40;2.77;;;8.20;99.90;;;;;;5064822;28;20680;-78
2022/01/31 14:56:19;;;;;;;18.50;3.33;;;8.20;99.90;;;;;;5074275;28;20392;-79
2022/01/31 14:58:45;;;;;;;22.30;3.10;;;8.20;99.90;;;;;;5077130;28;20051;-77
2022/01/31 15:01:12;;;;;;;17.07;2.33;;;8.10;99.90;;;;;;5078100;28;20067;-78
2022/01/31 15:03:38;;;;;;;19.13;3.60;;;8.10;99.90;;;;;;5093522;28;20058;-78
2022/01/31 15:06:04;;;;;;;11.00;2.20;;;8.10;99.90;;;;;;5085790;28;20648;-79
2022/01/31 15:08:30;;;;;;;15.60;2.27;;;8.10;99.90;;;;;;5053434;23;20115;-80
2022/01/31 15:10:56;;;;;;;12.10;1.60;;;8.00;99.90;;;;;;5026839;28;20048;-81
2022/01/31 15:13:22;;;;;;;10.63;1.80;;;8.00;99.90;;;;;;5024409;28;20041;-79
2022/01/31 15:15:52;;;;;;;9.10;1.80;;;8.00;99.90;;;;;;5038479;28;20131;-79
2022/01/31 15:18:20;;;;;;;7.93;1.60;;;8.00;99.90;;;;;;5013184;28;20157;-81
2022/01/31 15:20:46;;;;;;;6.77;1.73;;;7.90;99.90;;;;;;4993233;28;20099;-79
2022/01/31 15:23:14;;;;;;;9.77;1.67;;;7.80;99.90;;;;;;4995022;28;20046;-80
2022/01/31 15:25:41;;;;;;;6.77;1.47;;;7.80;99.90;;;;;;4994711;28;20476;-81
2022/01/31 15:28:07;;;;;;;13.60;1.97;;;7.70;99.90;;;;;;5000621;28;20042;-80
2022/01/31 15:30:33;;;;;;;10.37;1.73;;;7.60;99.90;;;;;;5014797;28;20092;-79
2022/01/31 15:32:59;;;;;;;13.20;2.17;;;7.60;99.90;;;;;;5012713;28;21023;-81
2022/01/31 15:35:26;;;;;;;9.07;1.93;;;7.50;99.90;;;;;;5014522;28;20120;-79
2022/01/31 15:37:52;;;;;;;7.57;1.93;;;7.50;99.90;;;;;;5014459;28;20041;-80
2022/01/31 15:40:19;;;;;;;9.40;1.70;;;7.40;99.90;;;;;;5015328;28;20103;-82
2022/01/31 15:42:45;;;;;;;10.83;2.17;;;7.40;99.90;;;;;;5011763;28;20042;-80
2022/01/31 15:45:11;;;;;;;12.40;2.33;;;7.40;99.90;;;;;;4999133;28;20044;-80
2022/01/31 15:47:37;;;;;;;9.27;2.50;;;7.30;99.90;;;;;;5016580;28;20045;-79
2022/01/31 15:50:03;;;;;;;8.90;2.10;;;7.30;99.90;;;;;;5007610;28;20497;-79
2022/01/31 15:52:30;;;;;;;10.67;2.20;;;7.20;99.90;;;;;;5006513;28;20084;-80
2022/01/31 15:54:56;;;;;;;6.87;2.50;;;7.20;99.90;;;;;;4999780;28;20424;-78
2022/01/31 15:57:23;;;;;;;9.13;2.40;;;7.20;99.90;;;;;;5014168;28;20146;-79
2022/01/31 15:59:50;;;;;;;6.40;2.53;;;7.10;99.90;;;;;;5018167;28;20037;-80
2022/01/31 16:02:17;;;;;;;7.83;2.57;;;7.10;99.90;;;;;;5034559;28;20128;-80
2022/01/31 16:04:43;;;;;;;8.80;3.13;;;7.00;99.90;;;;;;5018668;28;20424;-80
2022/01/31 16:07:08;;;;;;;6.90;2.50;;;6.90;99.90;;;;;;5017222;28;20049;-84
2022/01/31 16:09:36;;;;;;;10.80;2.53;;;6.80;99.90;;;;;;5012271;28;20429;-80
2022/01/31 16:12:04;;;;;;;7.27;2.80;;;6.80;99.90;;;;;;5016104;28;20085;-79
2022/01/31 16:14:30;;;;;;;7.17;2.90;;;6.70;99.90;;;;;;5031818;28;20119;-79
2022/01/31 16:16:56;;;;;;;7.70;3.17;;;6.70;99.90;;;;;;4989376;28;20084;-79
2022/01/31 16:19:21;;;;;;;9.07;3.67;;;6.70;99.90;;;;;;5008187;28;20045;-78
2022/01/31 16:21:47;;;;;;;8.93;3.10;;;6.60;99.90;;;;;;5020201;28;20045;-78
2022/01/31 16:24:13;;;;;;;8.03;3.07;;;6.60;99.90;;;;;;5014769;28;20515;-79
2022/01/31 16:26:40;;;;;;;8.40;3.50;;;6.50;99.90;;;;;;5021597;28;20234;-79
2022/01/31 16:29:06;;;;;;;9.13;4.03;;;6.50;99.90;;;;;;5020887;28;20137;-78
2022/01/31 16:31:33;;;;;;;5.27;2.90;;;6.50;99.90;;;;;;5000708;28;20548;-79
2022/01/31 16:34:02;;;;;;;9.57;3.50;;;6.40;99.90;;;;;;4995333;28;20421;-78
2022/01/31 16:36:28;;;;;;;10.90;4.00;;;6.40;99.90;;;;;;5030434;28;20052;-79
2022/01/31 16:38:53;;;;;;;12.70;4.37;;;6.30;99.90;;;;;;5008972;28;20703;-79